createdAt,value
2023-05-14T00:03:54.135Z,383.57065
2023-05-14T00:08:55.605Z,373.1414
2023-05-14T00:13:57.089Z,356.9642
2023-05-14T00:18:58.521Z,340.6685
2023-05-14T00:23:59.986Z,325.43945
2023-05-14T00:29:01.501Z,308.4327
2023-05-14T00:34:02.994Z,295.81095
2023-05-14T00:39:04.420Z,283.95955
2023-05-14T00:44:05.828Z,265.76765
2023-05-14T00:49:07.208Z,250.30155
2023-05-14T00:54:08.624Z,224.3471
2023-05-14T00:59:10.045Z,202.8369
2023-05-14T01:04:11.476Z,189.2078
2023-05-14T01:09:12.910Z,171.7862
2023-05-14T01:14:14.269Z,168.1122
2023-05-14T01:19:15.757Z,159.5199
2023-05-14T01:24:17.223Z,155.3719
2023-05-14T01:29:18.576Z,150.1572
2023-05-14T01:34:20.090Z,143.10555
2023-05-14T01:39:21.481Z,136.88355
2023-05-14T01:44:22.851Z,109.62545
2023-05-14T01:49:24.237Z,63.4244
2023-05-14T01:54:25.657Z,72.01755
2023-05-14T01:59:27.227Z,71.51935
2023-05-14T02:04:28.670Z,65.7101
2023-05-14T02:09:30.054Z,66.13415
2023-05-14T02:14:31.478Z,61.48675
2023-05-14T02:19:32.885Z,57.81675
2023-05-14T02:24:34.317Z,54.14675
2023-05-14T02:29:35.910Z,50.47675
2023-05-14T02:34:37.375Z,42.52825
2023-05-14T02:39:38.810Z,35.9812
2023-05-14T02:44:40.309Z,34.08155
2023-05-14T02:49:41.692Z,29.06525
2023-05-14T02:54:43.138Z,24.6023
2023-05-14T02:59:44.586Z,19.77045
2023-05-14T03:04:46.598Z,13.77675
2023-05-14T03:09:47.996Z,16.1556
2023-05-14T03:14:49.380Z,6.04425
2023-05-14T03:19:51.006Z,4.4443
2023-05-14T03:24:52.352Z,4.59225
2023-05-14T03:29:53.916Z,2.13325
2023-05-14T03:34:55.393Z,6.9711
2023-05-14T03:39:56.809Z,0.88885
2023-05-14T03:44:58.288Z,0.4148
2023-05-14T03:49:59.717Z,0
2023-05-14T03:55:01.149Z,0
2023-05-14T04:00:02.534Z,0
2023-05-14T04:05:03.955Z,0
2023-05-14T04:10:05.330Z,0
2023-05-14T04:15:06.777Z,0
2023-05-14T04:20:08.366Z,0
2023-05-14T04:25:09.765Z,0
2023-05-14T04:30:11.260Z,0
2023-05-14T04:35:12.828Z,0
2023-05-14T04:40:14.245Z,0
2023-05-14T04:45:15.634Z,0
2023-05-14T04:50:17.053Z,0
2023-05-14T04:55:18.464Z,0
2023-05-14T05:00:20.038Z,0
2023-05-14T05:05:21.532Z,0
2023-05-14T05:10:23.298Z,0
2023-05-14T05:15:26.575Z,0
2023-05-14T05:20:28.361Z,0
2023-05-14T05:25:29.775Z,0
2023-05-14T05:30:31.133Z,0
2023-05-14T05:35:32.509Z,0
2023-05-14T05:40:33.895Z,0
2023-05-14T05:45:35.315Z,0
2023-05-14T05:50:36.705Z,0
2023-05-14T05:55:38.117Z,0
2023-05-14T06:00:39.572Z,0
2023-05-14T06:05:41.010Z,0
2023-05-14T06:10:42.459Z,0
2023-05-14T06:15:43.971Z,0
2023-05-14T06:20:45.381Z,0
2023-05-14T06:25:48.416Z,0
2023-05-14T06:30:51.700Z,0
2023-05-14T06:35:53.158Z,0
2023-05-14T06:40:54.690Z,0
2023-05-14T06:45:56.148Z,0
2023-05-14T06:50:57.569Z,0
2023-05-14T06:55:58.979Z,0
2023-05-14T07:01:00.574Z,0
2023-05-14T07:06:02.099Z,0
2023-05-14T07:11:03.539Z,0
2023-05-14T07:16:05.041Z,0
2023-05-14T07:21:06.658Z,0
2023-05-14T07:26:08.151Z,0
2023-05-14T07:31:09.675Z,0
2023-05-14T07:36:11.217Z,0
2023-05-14T07:41:12.642Z,0
2023-05-14T07:46:14.061Z,0
2023-05-14T07:51:15.487Z,0
2023-05-14T07:56:16.974Z,0
2023-05-14T08:01:18.431Z,0
2023-05-14T08:06:19.895Z,0
2023-05-14T08:11:21.329Z,0
2023-05-14T08:16:22.862Z,0
2023-05-14T08:21:24.285Z,0
2023-05-14T08:26:25.736Z,0
2023-05-14T08:31:27.312Z,0
2023-05-14T08:36:28.952Z,0
2023-05-14T08:41:30.442Z,0
2023-05-14T08:46:31.863Z,0
2023-05-14T08:51:33.325Z,0
2023-05-14T08:56:34.750Z,0
2023-05-14T09:01:36.205Z,0
2023-05-14T09:06:37.770Z,0
2023-05-14T09:11:39.232Z,0
2023-05-14T09:16:40.744Z,0
2023-05-14T09:21:42.189Z,0
2023-05-14T09:26:43.614Z,0
2023-05-14T09:31:45.102Z,0
2023-05-14T09:36:46.736Z,0
2023-05-14T09:41:48.231Z,0
2023-05-14T09:46:49.709Z,0
2023-05-14T09:51:51.149Z,0
2023-05-14T09:56:55.034Z,0
2023-05-14T10:01:57.017Z,0
2023-05-14T10:06:58.423Z,0
2023-05-14T10:11:59.834Z,0
2023-05-14T10:17:01.306Z,0
2023-05-14T10:22:02.835Z,0
2023-05-14T10:27:04.246Z,0
2023-05-14T10:32:05.730Z,0
2023-05-14T10:37:07.200Z,0
2023-05-14T10:42:08.670Z,0
2023-05-14T10:47:10.098Z,0
2023-05-14T10:52:11.526Z,0
2023-05-14T10:57:12.949Z,0
2023-05-14T11:02:14.549Z,0
2023-05-14T11:07:16.102Z,0
2023-05-14T11:12:17.609Z,0
2023-05-14T11:17:19.293Z,0
2023-05-14T11:22:20.785Z,0
2023-05-14T11:27:22.278Z,0
2023-05-14T11:32:23.883Z,0
2023-05-14T11:37:25.409Z,0
2023-05-14T11:42:26.913Z,0
2023-05-14T11:47:28.348Z,0.4148
2023-05-14T11:52:29.743Z,0.8296
2023-05-14T11:57:31.224Z,1.30365
2023-05-14T12:02:32.836Z,1.83695
2023-05-14T12:07:34.424Z,3.25915
2023-05-14T12:12:35.879Z,4.8591
2023-05-14T12:17:37.503Z,6.8608
2023-05-14T12:22:38.913Z,10.71525
2023-05-14T12:27:40.463Z,14.5697
2023-05-14T12:32:42.063Z,19.40155
2023-05-14T12:37:43.461Z,21.11675
2023-05-14T12:42:44.990Z,29.06525
2023-05-14T12:47:46.492Z,32.9197
2023-05-14T12:52:47.915Z,33.84195
2023-05-14T12:57:49.376Z,31.28785
2023-05-14T13:02:50.818Z,59.6717
2023-05-14T13:07:52.278Z,76.4415
2023-05-14T13:12:53.726Z,79.9376
2023-05-14T13:17:55.213Z,90.7816
2023-05-14T13:22:56.622Z,103.6996
2023-05-14T13:27:58.093Z,109.32895
2023-05-14T13:32:59.522Z,122.6025
2023-05-14T13:38:00.999Z,133.09095
2023-05-14T13:43:02.471Z,135.9945
2023-05-14T13:48:03.958Z,141.624
2023-05-14T13:53:05.447Z,142.39445
2023-05-14T13:58:06.934Z,147.31285
2023-05-14T14:03:08.558Z,161.94935
2023-05-14T14:08:22.776Z,177.4154
2023-05-14T14:13:25.586Z,178.12645
2023-05-14T14:18:27.120Z,180.2004
2023-05-14T14:23:28.615Z,172.6747
2023-05-14T14:28:30.069Z,179.60765
2023-05-14T14:33:31.473Z,187.4888
2023-05-14T14:38:32.887Z,189.74055
2023-05-14T14:43:34.466Z,196.4366
2023-05-14T14:48:35.930Z,199.9922
2023-05-14T14:53:37.400Z,212.8511
2023-05-14T14:58:38.808Z,220.9695
2023-05-14T15:03:40.263Z,234.3023
2023-05-14T15:08:41.774Z,255.3385
2023-05-14T15:13:43.165Z,267.6046
2023-05-14T15:18:44.680Z,283.36675
2023-05-14T15:23:46.130Z,303.2768
2023-05-14T15:28:47.508Z,317.20205
2023-05-14T15:33:49.124Z,347.3045
2023-05-14T15:38:50.528Z,377.88105
2023-05-14T15:43:51.887Z,380.5476
2023-05-14T15:48:53.323Z,410.41315
2023-05-14T15:53:54.691Z,416.93135
2023-05-14T15:58:56.121Z,415.50915
2023-05-14T16:03:57.648Z,404.3095
2023-05-14T16:08:59.167Z,416.51645
2023-05-14T16:14:00.650Z,418.82745
2023-05-14T16:19:02.083Z,426.8865
2023-05-14T16:24:03.496Z,464.811
2023-05-14T16:29:04.945Z,459.18175
2023-05-14T16:34:06.479Z,483.77345
2023-05-14T16:39:08.563Z,469.78855
2023-05-14T16:44:10.133Z,476.6625
2023-05-14T16:49:11.684Z,485.7882
2023-05-14T16:54:13.107Z,490.11405
2023-05-14T16:59:14.796Z,478.9737
2023-05-14T17:04:16.320Z,466.8259
2023-05-14T17:09:17.832Z,498.52845
2023-05-14T17:14:19.212Z,496.6915
2023-05-14T17:19:20.654Z,484.48445
2023-05-14T17:24:22.079Z,470.559
2023-05-14T17:29:23.475Z,473.1665
2023-05-14T17:34:24.832Z,471.7443
2023-05-14T17:39:26.285Z,460.54445
2023-05-14T17:44:27.669Z,475.1809
2023-05-14T17:49:29.061Z,477.8477
2023-05-14T17:54:30.450Z,483.5957
2023-05-14T17:59:31.835Z,471.033
2023-05-14T18:04:33.344Z,499.5954
2023-05-14T18:09:34.733Z,493.78825
2023-05-14T18:14:36.157Z,466.589
2023-05-14T18:19:37.730Z,448.8709
2023-05-14T18:24:39.138Z,475.29995
2023-05-14T18:29:40.530Z,512.3362
2023-05-14T18:34:42.130Z,510.677
2023-05-14T18:39:43.536Z,522.11385
2023-05-14T18:44:44.940Z,540.95795
2023-05-14T18:49:46.318Z,552.9281
2023-05-14T18:54:47.697Z,552.15785
2023-05-14T18:59:49.147Z,553.04675
2023-05-14T19:04:52.764Z,541.373
2023-05-14T19:09:54.764Z,527.50665
2023-05-14T19:14:56.162Z,502.4408
2023-05-14T19:19:57.636Z,459.41975
2023-05-14T19:24:59.020Z,408.3397
2023-05-14T19:30:00.428Z,373.43705
2023-05-14T19:35:01.829Z,359.5117
2023-05-14T19:40:03.255Z,346.11945
2023-05-14T19:45:04.755Z,338.41595
2023-05-14T19:50:06.510Z,350.50455
2023-05-14T19:55:07.952Z,385.70365
2023-05-14T20:00:09.323Z,432.5765
2023-05-14T20:05:10.822Z,495.0342
2023-05-14T20:10:12.436Z,539.1811
2023-05-14T20:15:13.995Z,571.3579
2023-05-14T20:20:15.377Z,598.67545
2023-05-14T20:25:16.780Z,625.34115
2023-05-14T20:30:18.191Z,653.54745
2023-05-14T20:35:19.569Z,672.45045
2023-05-14T20:40:21.010Z,678.6723
2023-05-14T20:45:22.430Z,701.78275
2023-05-14T20:50:24.043Z,710.78975
2023-05-14T20:55:25.663Z,715.94505
2023-05-14T21:00:27.276Z,719.73745
2023-05-14T21:05:28.805Z,721.5151
2023-05-14T21:10:30.247Z,721.5743
2023-05-14T21:15:31.647Z,720.44835
2023-05-14T21:20:33.096Z,719.4409
2023-05-14T21:25:34.533Z,719.79645
2023-05-14T21:30:35.942Z,713.27805
2023-05-14T21:35:37.357Z,711.79665
2023-05-14T21:40:39.758Z,707.41155
2023-05-14T21:45:41.159Z,702.90805
2023-05-14T21:50:42.530Z,694.3157
2023-05-14T21:55:43.999Z,685.0123
2023-05-14T22:00:45.566Z,679.79765
2023-05-14T22:05:46.964Z,676.95345
2023-05-14T22:10:48.385Z,664.0353
2023-05-14T22:15:51.398Z,656.03565
2023-05-14T22:20:56.912Z,639.325
2023-05-14T22:25:58.252Z,630.9105
2023-05-14T22:30:59.840Z,622.08125
2023-05-14T22:36:01.360Z,609.7557
2023-05-14T22:41:02.771Z,599.85975
2023-05-14T22:46:04.187Z,586.2898
2023-05-14T22:51:05.627Z,572.95695
2023-05-14T22:56:07.018Z,562.88325
2023-05-14T23:01:08.633Z,548.48365
2023-05-14T23:06:10.073Z,535.50635
2023-05-14T23:11:11.491Z,523.29935
2023-05-14T23:16:12.876Z,511.09235
2023-05-14T23:21:14.335Z,498.05575
2023-05-14T23:26:15.744Z,487.50795
2023-05-14T23:31:17.266Z,470.79735
2023-05-14T23:36:18.721Z,455.98305
2023-05-14T23:41:20.158Z,442.82795
2023-05-14T23:46:21.567Z,429.02105
2023-05-14T23:51:23.091Z,413.8512
2023-05-14T23:56:24.522Z,401.585
